Terminal Aerodrome Forecast
Issued by NWS

Home | Current Version | Previous Version | Text Only | Print | Product List | Glossary On
Versions: 1 2 3 4 5 6 7 8 9 10 11 12 13 14 15 16 17 18 19 20 21 22 23 24 25 26 27 28 29 30 31 32
000
FTUS43 KDVN 142327
TAFCID
TAF
KCID 142327Z 1500/1524 16010KT 4SM BR OVC007
      TEMPO 1500/1504 1SM -RADZ BR OVC005
     FM150400 17008KT 1SM -RADZ OVC004
     FM150900 18007KT 3/4SM BR OVC004 PROB30 1509/1512 VRB05KT 1/2SM
      -DZ FG OVC002
     FM151300 26011KT 2SM -DZ BR OVC004
     FM151600 31016G25KT P6SM SKC=

USA.gov is the U.S. government's official web portal to all federal, state and local government web resources and services.